Time;durP1;ratioP1;P1;durP2;ratioP2;P2;SDS_P1;SDS_P2;PMS_P1;PMS_P2;Temp;Humidity;BMP_temperature;BMP_pressure;BME280_temperature;BME280_humidity;BME280_pressure;Samples;Min_cycle;Max_cycle;Signal;HPM_P1;HPM_P2
2021/10/05 00:09:49;;;;;;;3.73;1.70;;;16.80;99.90;;;;;;5055808;28;20252;-91
2021/10/05 00:12:23;;;;;;;3.50;1.70;;;17.00;99.90;;;;;;5058318;28;20213;-92
2021/10/05 00:14:55;;;;;;;4.40;1.57;;;17.00;99.90;;;;;;5053867;28;20193;-93
2021/10/05 00:39:05;;;;;;;3.33;1.63;;;16.10;99.90;;;;;;5041593;28;20264;-90
2021/10/05 00:41:38;;;;;;;4.70;1.50;;;16.00;99.90;;;;;;5055809;28;20203;-91
2021/10/05 00:44:10;;;;;;;4.03;1.53;;;15.90;99.90;;;;;;5054584;28;20217;-91
2021/10/05 00:46:46;;;;;;;4.67;2.00;;;15.80;99.90;;;;;;5055462;28;20201;-90
2021/10/05 00:49:22;;;;;;;4.43;1.67;;;15.70;99.90;;;;;;5053406;28;20228;-91
2021/10/05 00:51:55;;;;;;;5.40;1.67;;;15.70;99.90;;;;;;5036935;28;20213;-92
2021/10/05 00:54:29;;;;;;;4.50;1.73;;;15.60;99.90;;;;;;5054174;28;20213;-92
2021/10/05 00:57:02;;;;;;;6.83;1.53;;;15.50;99.90;;;;;;5056158;28;20235;-92
2021/10/05 00:59:42;;;;;;;2.23;1.43;;;15.50;99.90;;;;;;5038304;28;20225;-92
2021/10/05 01:02:16;;;;;;;2.07;1.47;;;15.40;99.90;;;;;;5053363;28;20212;-92
2021/10/05 01:04:49;;;;;;;3.27;1.50;;;15.30;99.90;;;;;;5051240;28;20204;-92
2021/10/05 01:07:22;;;;;;;2.73;1.50;;;15.30;99.90;;;;;;5053409;28;20201;-91
2021/10/05 01:09:57;;;;;;;3.60;1.70;;;15.20;99.90;;;;;;5165045;23;20249;-93
2021/10/05 01:12:31;;;;;;;5.30;1.90;;;15.00;99.90;;;;;;5006844;28;20237;-93
2021/10/05 01:15:04;;;;;;;2.47;1.40;;;14.90;99.90;;;;;;5001740;28;20237;-93
2021/10/05 01:17:35;;;;;;;5.00;1.57;;;14.90;99.90;;;;;;4983806;28;20252;-93
2021/10/05 01:20:08;;;;;;;5.83;1.70;;;14.80;99.90;;;;;;5000236;28;20643;-93
2021/10/05 01:22:41;;;;;;;5.43;1.70;;;14.70;99.90;;;;;;5000503;28;20213;-93
2021/10/05 01:25:16;;;;;;;2.57;1.50;;;14.60;99.90;;;;;;5010527;28;20249;-93
2021/10/05 01:27:51;;;;;;;5.20;2.33;;;14.50;99.90;;;;;;4991785;28;20209;-94
2021/10/05 01:30:23;;;;;;;6.50;4.87;;;14.40;99.90;;;;;;5003916;28;20215;-93
2021/10/05 01:32:55;;;;;;;7.20;3.83;;;14.30;99.90;;;;;;4997420;28;20222;-93
2021/10/05 01:35:28;;;;;;;8.10;5.20;;;14.20;99.90;;;;;;5022080;28;20293;-93
2021/10/05 01:38:01;;;;;;;6.43;3.83;;;14.10;99.90;;;;;;5038234;28;20193;-92
2021/10/05 01:40:34;;;;;;;4.93;3.03;;;14.10;99.90;;;;;;5038143;28;20232;-91
2021/10/05 01:43:06;;;;;;;7.80;3.00;;;14.00;99.90;;;;;;5030447;28;20263;-91
2021/10/05 01:45:39;;;;;;;5.17;3.00;;;13.90;99.90;;;;;;5020523;28;20225;-94
2021/10/05 01:48:14;;;;;;;4.17;2.77;;;13.90;99.90;;;;;;5019395;28;20198;-93
2021/10/05 01:50:48;;;;;;;5.73;2.77;;;13.80;99.90;;;;;;5055179;28;20196;-93
2021/10/05 01:53:22;;;;;;;4.10;2.67;;;13.70;99.90;;;;;;5038868;28;20186;-93
2021/10/05 01:55:53;;;;;;;3.47;2.30;;;13.70;99.90;;;;;;5038027;28;20241;-93
2021/10/05 02:01:01;;;;;;;4.60;2.20;;;13.60;99.90;;;;;;5049495;23;20245;-95
2021/10/05 02:06:40;;;;;;;3.13;2.30;;;13.60;99.90;;;;;;4999521;28;20217;-93
2021/10/05 02:14:44;;;;;;;3.07;2.70;;;13.50;99.90;;;;;;5011467;28;20245;-95
2021/10/05 02:17:17;;;;;;;4.73;2.60;;;13.50;99.90;;;;;;4996706;28;20202;-94
2021/10/05 02:19:50;;;;;;;4.70;2.87;;;13.40;99.90;;;;;;5029897;28;20217;-95
2021/10/05 02:22:22;;;;;;;4.63;2.10;;;13.30;99.90;;;;;;5023373;28;20202;-94
2021/10/05 02:24:53;;;;;;;2.87;2.40;;;13.40;99.90;;;;;;5012603;28;20217;-93
2021/10/05 02:27:26;;;;;;;5.97;2.17;;;13.30;99.90;;;;;;5012642;28;20229;-94
2021/10/05 02:30:03;;;;;;;5.27;2.10;;;13.20;99.90;;;;;;5021449;28;20252;-95
2021/10/05 02:32:39;;;;;;;5.93;2.33;;;13.10;99.90;;;;;;5009865;28;20273;-96
2021/10/05 02:37:55;;;;;;;3.63;2.27;;;13.00;99.90;;;;;;5212857;22;20653;-94
2021/10/05 02:40:28;;;;;;;2.90;1.60;;;12.90;99.90;;;;;;5011286;28;20280;-94
2021/10/05 02:43:02;;;;;;;4.83;2.20;;;12.90;99.90;;;;;;5010857;28;20279;-94
2021/10/05 02:45:37;;;;;;;3.17;2.30;;;12.80;99.90;;;;;;4996008;28;20226;-94
2021/10/05 02:48:09;;;;;;;4.00;2.10;;;12.70;99.90;;;;;;4999449;28;20216;-95
2021/10/05 02:50:41;;;;;;;5.87;2.37;;;12.70;99.90;;;;;;5015938;28;20203;-95
2021/10/05 03:04:00;;;;;;;4.03;3.50;;;12.60;99.90;;;;;;5033389;28;20332;-94
2021/10/05 03:06:37;;;;;;;8.00;5.50;;;12.50;99.90;;;;;;5030274;28;20213;-95
2021/10/05 03:09:09;;;;;;;8.57;5.57;;;12.50;99.90;;;;;;5030694;28;20217;-96
2021/10/05 03:11:42;;;;;;;9.27;6.23;;;12.50;99.90;;;;;;5023691;28;20339;-96
2021/10/05 03:14:20;;;;;;;6.77;6.03;;;12.50;99.90;;;;;;4997484;28;20186;-96
2021/10/05 03:16:55;;;;;;;5.47;4.63;;;12.50;99.90;;;;;;5013072;28;20210;-95
2021/10/05 03:19:29;;;;;;;4.43;3.83;;;12.50;99.90;;;;;;4998195;28;20237;-96
2021/10/05 03:41:02;;;;;;;3.50;2.70;;;12.30;99.90;;;;;;5014573;28;20256;-93
2021/10/05 03:43:39;;;;;;;4.40;3.33;;;12.30;99.90;;;;;;5119584;23;20241;-93
2021/10/05 03:49:00;;;;;;;6.23;4.40;;;12.20;99.90;;;;;;5069448;22;20237;-95
2021/10/05 04:21:18;;;;;;;5.03;2.67;;;12.10;99.90;;;;;;5484672;23;20225;-95
2021/10/05 04:24:00;;;;;;;3.47;2.70;;;12.00;99.90;;;;;;5017450;28;20236;-95
2021/10/05 04:35:21;;;;;;;3.47;2.73;;;12.10;99.90;;;;;;4991617;28;20218;-95
2021/10/05 04:37:55;;;;;;;3.87;2.60;;;12.00;99.90;;;;;;4968814;28;20206;-95
2021/10/05 04:40:27;;;;;;;3.93;2.80;;;12.10;99.90;;;;;;4971797;28;20232;-94
2021/10/05 04:42:59;;;;;;;3.93;2.90;;;12.00;99.90;;;;;;4994742;28;20215;-94
2021/10/05 04:45:32;;;;;;;5.07;3.50;;;12.00;99.90;;;;;;4993240;28;20672;-94
2021/10/05 04:48:07;;;;;;;6.03;3.13;;;12.00;99.90;;;;;;4995597;28;20213;-94
2021/10/05 04:50:40;;;;;;;4.73;2.73;;;12.00;99.90;;;;;;4985307;28;20249;-94
2021/10/05 04:53:22;;;;;;;5.20;2.67;;;12.00;99.90;;;;;;5005482;28;20213;-95
2021/10/05 04:55:54;;;;;;;5.60;2.83;;;12.00;99.90;;;;;;4991763;28;20237;-95
2021/10/05 05:06:29;;;;;;;4.73;2.93;;;11.90;99.90;;;;;;5032966;28;20360;-95
2021/10/05 05:09:19;;;;;;;5.67;3.07;;;11.80;99.90;;;;;;5036747;28;20205;-96
2021/10/05 05:41:34;;;;;;;6.97;3.30;;;11.80;99.90;;;;;;5128237;22;20257;-93
2021/10/05 05:57:36;;;;;;;4.97;3.23;;;11.70;99.90;;;;;;5055647;28;20205;-95
2021/10/05 06:00:09;;;;;;;6.30;3.17;;;11.70;99.90;;;;;;5042245;28;20212;-95
2021/10/05 06:02:42;;;;;;;5.67;3.17;;;11.70;99.90;;;;;;5057940;28;20229;-95
2021/10/05 06:05:17;;;;;;;6.37;3.33;;;11.80;99.90;;;;;;5056974;28;20207;-94
2021/10/05 06:07:51;;;;;;;4.00;2.90;;;11.80;99.90;;;;;;5040770;28;20208;-95
2021/10/05 06:16:06;;;;;;;5.17;3.23;;;11.70;99.90;;;;;;5015356;28;20187;-96
2021/10/05 06:18:39;;;;;;;4.77;2.90;;;11.70;99.90;;;;;;4980903;28;20203;-96
2021/10/05 06:21:15;;;;;;;5.27;3.20;;;11.70;99.90;;;;;;4997075;28;20217;-96
2021/10/05 06:23:49;;;;;;;6.67;4.20;;;11.60;99.90;;;;;;4996630;28;20238;-95
2021/10/05 06:26:22;;;;;;;7.37;3.50;;;11.60;99.90;;;;;;4978201;28;20233;-96
2021/10/05 06:29:07;;;;;;;4.47;3.30;;;11.60;99.90;;;;;;4976443;29;20199;-96
2021/10/05 06:31:41;;;;;;;4.17;3.17;;;11.50;99.90;;;;;;4957943;29;20215;-96
2021/10/05 06:42:14;;;;;;;4.67;3.37;;;11.40;99.90;;;;;;5028013;28;20235;-96
2021/10/05 06:44:48;;;;;;;5.00;3.20;;;11.40;99.90;;;;;;5026453;28;20235;-94
2021/10/05 06:47:19;;;;;;;6.50;3.43;;;11.30;99.90;;;;;;5030136;28;20210;-95
2021/10/05 06:52:26;;;;;;;3.70;2.83;;;11.20;99.90;;;;;;5020517;23;20292;-94
2021/10/05 06:54:57;;;;;;;6.47;3.50;;;11.20;99.90;;;;;;5004753;28;20198;-94
2021/10/05 06:57:28;;;;;;;7.07;3.27;;;11.20;99.90;;;;;;4994618;28;20211;-94
2021/10/05 07:00:02;;;;;;;5.37;3.10;;;11.20;99.90;;;;;;4992574;28;20206;-94
2021/10/05 07:02:34;;;;;;;4.60;3.17;;;11.10;99.90;;;;;;5003177;28;20226;-94
2021/10/05 07:08:00;;;;;;;5.07;3.40;;;11.00;99.90;;;;;;5165832;22;20252;-92
2021/10/05 07:10:34;;;;;;;6.43;3.40;;;11.00;99.90;;;;;;5026151;28;20279;-95
2021/10/05 07:13:07;;;;;;;5.43;3.40;;;10.90;99.90;;;;;;5022406;28;20213;-93
2021/10/05 07:15:40;;;;;;;6.20;3.40;;;10.90;99.90;;;;;;5021812;28;20237;-94
2021/10/05 07:18:13;;;;;;;7.67;3.63;;;10.90;99.90;;;;;;5016209;28;20222;-94
2021/10/05 07:20:44;;;;;;;7.67;3.80;;;10.90;99.90;;;;;;4997111;28;20223;-91
2021/10/05 07:23:16;;;;;;;9.53;3.90;;;10.90;99.90;;;;;;4997067;28;20246;-94
2021/10/05 07:26:02;;;;;;;4.37;3.67;;;10.90;99.90;;;;;;4996539;28;20191;-96
2021/10/05 07:28:33;;;;;;;6.77;3.63;;;11.00;99.90;;;;;;4997467;28;20214;-95
2021/10/05 07:31:09;;;;;;;7.17;3.47;;;11.00;99.90;;;;;;4996945;28;20238;-94
2021/10/05 07:33:45;;;;;;;8.53;3.63;;;11.00;99.90;;;;;;4980694;28;20219;-94
2021/10/05 07:36:18;;;;;;;5.73;3.20;;;11.00;99.90;;;;;;4995331;28;20202;-95
2021/10/05 07:38:50;;;;;;;3.70;3.20;;;11.00;99.90;;;;;;4986194;28;20215;-95
2021/10/05 07:41:22;;;;;;;3.83;2.97;;;11.10;99.90;;;;;;4982378;28;20215;-96
2021/10/05 07:44:06;;;;;;;5.20;2.90;;;11.10;99.90;;;;;;4981879;28;20234;-95
2021/10/05 07:46:42;;;;;;;3.00;2.70;;;11.00;99.90;;;;;;4985994;28;20215;-95
2021/10/05 07:49:14;;;;;;;6.30;2.87;;;11.10;99.90;;;;;;4983848;28;20246;-94
2021/10/05 07:51:45;;;;;;;5.27;2.90;;;11.00;99.90;;;;;;4983386;28;20270;-93
2021/10/05 07:54:17;;;;;;;7.07;3.03;;;11.00;99.90;;;;;;4983002;28;20629;-94
2021/10/05 07:56:47;;;;;;;5.07;3.00;;;11.00;99.90;;;;;;4984037;28;20242;-94
2021/10/05 07:59:19;;;;;;;4.80;2.97;;;11.00;99.90;;;;;;4983164;28;20207;-93
2021/10/05 08:01:54;;;;;;;4.17;2.97;;;10.90;99.90;;;;;;4984642;28;20210;-94
2021/10/05 08:04:25;;;;;;;9.50;2.90;;;10.90;99.90;;;;;;5005131;28;20217;-95
2021/10/05 08:06:57;;;;;;;4.37;2.83;;;10.90;99.90;;;;;;4985072;28;20214;-93
2021/10/05 08:09:28;;;;;;;3.77;2.73;;;10.90;99.90;;;;;;5006285;28;20194;-95
2021/10/05 08:11:59;;;;;;;4.60;3.20;;;10.90;99.90;;;;;;5003884;28;20289;-94
2021/10/05 08:14:31;;;;;;;6.47;3.07;;;11.00;99.90;;;;;;5012995;28;20191;-94
2021/10/05 08:17:06;;;;;;;5.57;3.40;;;11.00;99.90;;;;;;5009520;28;20241;-94
2021/10/05 08:19:38;;;;;;;4.73;3.20;;;11.10;99.90;;;;;;5018052;28;20235;-95
2021/10/05 08:22:10;;;;;;;4.50;2.60;;;11.10;99.90;;;;;;5002374;28;20290;-96
2021/10/05 08:24:41;;;;;;;4.90;2.90;;;11.20;99.90;;;;;;5007325;28;20206;-95
2021/10/05 08:27:12;;;;;;;3.13;2.77;;;11.20;99.90;;;;;;5005822;28;20237;-96
2021/10/05 08:29:48;;;;;;;10.03;3.67;;;11.20;99.90;;;;;;4989033;28;20198;-94
2021/10/05 08:32:23;;;;;;;3.63;2.70;;;11.20;99.90;;;;;;5006525;28;20219;-95
2021/10/05 08:34:54;;;;;;;5.63;2.70;;;11.20;99.90;;;;;;5004369;28;20207;-95
2021/10/05 08:37:26;;;;;;;6.50;3.27;;;11.20;99.90;;;;;;4988238;28;20237;-96
2021/10/05 08:39:57;;;;;;;4.40;2.70;;;11.20;99.90;;;;;;5010378;28;20186;-96
2021/10/05 08:42:29;;;;;;;4.23;2.63;;;11.30;99.90;;;;;;5029070;23;20249;-95
2021/10/05 08:45:01;;;;;;;4.03;2.63;;;11.30;99.90;;;;;;5034607;28;20316;-96
2021/10/05 08:47:35;;;;;;;5.03;2.47;;;11.30;99.90;;;;;;5034245;28;20208;-96
2021/10/05 08:50:08;;;;;;;4.20;2.50;;;11.30;99.90;;;;;;5026676;28;20586;-93
2021/10/05 08:52:40;;;;;;;5.30;2.97;;;11.40;99.90;;;;;;5021952;28;20225;-93
2021/10/05 08:55:12;;;;;;;4.40;2.53;;;11.40;99.90;;;;;;5013251;28;20210;-94
2021/10/05 08:57:44;;;;;;;4.70;2.90;;;11.30;99.90;;;;;;5011688;28;20201;-94
2021/10/05 09:00:17;;;;;;;4.07;2.60;;;11.40;99.90;;;;;;5005350;28;20225;-94
2021/10/05 09:02:53;;;;;;;6.70;2.47;;;11.40;99.90;;;;;;5002087;28;20230;-94
2021/10/05 09:05:28;;;;;;;4.10;2.70;;;11.40;99.90;;;;;;5000270;28;20202;-94
2021/10/05 09:08:00;;;;;;;4.27;2.70;;;11.40;99.90;;;;;;5000545;28;20206;-94
2021/10/05 09:10:35;;;;;;;3.80;2.60;;;11.40;99.90;;;;;;5000769;28;20202;-94
2021/10/05 09:13:07;;;;;;;3.07;2.77;;;11.30;99.90;;;;;;5002593;28;20673;-93
2021/10/05 09:15:39;;;;;;;7.03;2.97;;;11.30;99.90;;;;;;5000456;28;20268;-94
2021/10/05 09:18:12;;;;;;;5.83;2.50;;;11.40;99.90;;;;;;5000083;28;20580;-94
2021/10/05 09:20:44;;;;;;;3.77;2.47;;;11.50;99.90;;;;;;5000967;28;20237;-95
2021/10/05 09:23:19;;;;;;;3.40;2.50;;;11.50;99.90;;;;;;5000197;28;21103;-96
2021/10/05 09:26:06;;;;;;;5.10;3.20;;;11.60;99.90;;;;;;5000134;28;20230;-95
2021/10/05 09:28:46;;;;;;;3.20;2.70;;;11.60;99.90;;;;;;5003814;28;20241;-95
2021/10/05 09:31:20;;;;;;;10.23;2.87;;;11.70;99.90;;;;;;4980869;28;20648;-95
2021/10/05 09:33:55;;;;;;;6.23;2.70;;;11.80;99.90;;;;;;4983321;28;20195;-95
2021/10/05 09:36:32;;;;;;;3.23;2.60;;;11.80;99.90;;;;;;4982292;28;20230;-96
2021/10/05 09:39:06;;;;;;;6.57;3.27;;;11.90;99.90;;;;;;4983068;28;20222;-94
2021/10/05 09:41:38;;;;;;;6.23;3.40;;;11.90;99.90;;;;;;4964472;28;20213;-95
2021/10/05 09:44:09;;;;;;;6.07;2.60;;;11.90;99.90;;;;;;4980183;28;20293;-95
2021/10/05 09:46:51;;;;;;;7.80;3.13;;;11.80;99.90;;;;;;4983976;28;20238;-95
2021/10/05 09:49:26;;;;;;;4.43;2.77;;;11.80;99.90;;;;;;4965750;28;20663;-93
2021/10/05 09:52:01;;;;;;;3.10;2.60;;;11.70;99.90;;;;;;4963255;28;20273;-93
2021/10/05 09:54:33;;;;;;;4.37;2.57;;;11.60;99.90;;;;;;4979559;28;20238;-93
2021/10/05 09:57:07;;;;;;;5.70;2.60;;;11.60;99.90;;;;;;4980196;28;20724;-95
2021/10/05 09:59:38;;;;;;;4.30;2.70;;;11.50;99.90;;;;;;4963218;28;20214;-93
2021/10/05 10:02:17;;;;;;;5.20;2.80;;;11.40;99.90;;;;;;4978062;28;20207;-93
2021/10/05 10:04:53;;;;;;;3.00;2.50;;;11.30;99.90;;;;;;4979932;28;20234;-93
2021/10/05 10:07:25;;;;;;;2.60;2.40;;;11.30;99.90;;;;;;4979869;28;20213;-93
2021/10/05 10:09:56;;;;;;;2.73;2.30;;;11.30;99.90;;;;;;4979758;28;20314;-93
2021/10/05 10:12:28;;;;;;;2.90;2.60;;;11.20;99.90;;;;;;4980130;28;20210;-92
2021/10/05 10:15:00;;;;;;;3.77;2.70;;;11.20;99.90;;;;;;4962815;28;20270;-93
2021/10/05 10:17:32;;;;;;;5.07;2.43;;;11.20;99.90;;;;;;4962577;28;20266;-93
2021/10/05 10:20:10;;;;;;;3.60;2.83;;;11.20;99.90;;;;;;4980302;28;20211;-95
2021/10/05 10:22:45;;;;;;;6.37;3.00;;;11.20;99.90;;;;;;4985416;28;20198;-95
2021/10/05 10:25:25;;;;;;;4.97;2.60;;;11.20;99.90;;;;;;4980540;28;20241;-95
2021/10/05 10:30:35;;;;;;;3.50;2.83;;;11.20;99.90;;;;;;5016275;28;20293;-96
2021/10/05 10:33:07;;;;;;;5.20;2.80;;;11.20;99.90;;;;;;5017512;28;20214;-96
2021/10/05 10:35:52;;;;;;;3.03;2.60;;;11.20;99.90;;;;;;4995131;28;20221;-96
2021/10/05 10:38:26;;;;;;;8.90;2.80;;;11.30;99.90;;;;;;5012104;28;20311;-96
2021/10/05 10:41:00;;;;;;;2.83;2.60;;;11.30;99.90;;;;;;5001365;28;20210;-96
2021/10/05 10:46:28;;;;;;;3.93;2.80;;;11.50;99.90;;;;;;4998847;28;20297;-96
2021/10/05 10:49:06;;;;;;;7.60;3.10;;;11.50;99.90;;;;;;4999519;28;20273;-95
2021/10/05 10:51:43;;;;;;;3.67;2.77;;;11.50;99.90;;;;;;4998050;28;20221;-94
2021/10/05 10:54:17;;;;;;;3.37;3.03;;;11.50;99.90;;;;;;4997804;28;20206;-95
2021/10/05 10:56:58;;;;;;;5.07;3.00;;;11.60;99.90;;;;;;4997393;28;20210;-94
2021/10/05 10:59:32;;;;;;;7.33;3.07;;;11.60;99.90;;;;;;5000898;28;20205;-94
2021/10/05 11:02:06;;;;;;;8.57;3.20;;;11.60;99.90;;;;;;5030041;22;20252;-94
2021/10/05 11:04:39;;;;;;;5.33;2.67;;;11.70;99.90;;;;;;5000695;28;20245;-94
2021/10/05 11:07:13;;;;;;;8.73;3.13;;;11.70;99.90;;;;;;4998854;28;20229;-94
2021/10/05 11:09:45;;;;;;;4.80;2.80;;;11.80;99.90;;;;;;4998535;28;20241;-94
2021/10/05 11:12:16;;;;;;;5.37;2.87;;;11.80;99.90;;;;;;4998972;28;20206;-93
2021/10/05 11:14:49;;;;;;;7.43;2.97;;;11.80;99.90;;;;;;4999748;28;20237;-93
2021/10/05 11:17:20;;;;;;;4.37;2.90;;;11.80;99.90;;;;;;5000997;28;20218;-93
2021/10/05 11:19:51;;;;;;;12.17;3.30;;;11.80;99.90;;;;;;5002547;28;20233;-95
2021/10/05 11:22:25;;;;;;;4.50;2.60;;;11.80;99.90;;;;;;5002925;28;20218;-95
2021/10/05 11:24:57;;;;;;;5.37;2.37;;;11.80;99.90;;;;;;5004012;28;20233;-95
2021/10/05 11:27:30;;;;;;;3.33;2.60;;;11.70;99.90;;;;;;5002751;28;20206;-96
2021/10/05 11:30:06;;;;;;;4.27;2.57;;;11.60;99.90;;;;;;5001834;28;20250;-95
2021/10/05 11:32:37;;;;;;;6.97;2.73;;;11.60;99.90;;;;;;4980160;28;20211;-96
2021/10/05 11:35:09;;;;;;;7.23;2.83;;;11.60;99.90;;;;;;4980899;28;20214;-94
2021/10/05 11:37:42;;;;;;;4.40;2.80;;;11.60;99.90;;;;;;4982451;28;20230;-94
2021/10/05 11:40:14;;;;;;;4.27;2.60;;;11.50;99.90;;;;;;4982453;28;20207;-95
2021/10/05 11:42:49;;;;;;;8.03;3.17;;;11.40;99.90;;;;;;4965971;28;20225;-96
2021/10/05 11:45:30;;;;;;;5.53;3.07;;;11.40;99.90;;;;;;4981251;28;20242;-95
2021/10/05 11:48:01;;;;;;;6.37;2.70;;;11.30;99.90;;;;;;4982807;28;20269;-95
2021/10/05 11:50:34;;;;;;;9.87;3.03;;;11.40;99.90;;;;;;4982868;28;20278;-94
2021/10/05 11:53:15;;;;;;;3.97;2.67;;;11.40;99.90;;;;;;4982615;28;20684;-94
2021/10/05 11:56:05;;;;;;;4.13;2.77;;;11.50;99.90;;;;;;4981135;28;20738;-94
2021/10/05 11:58:50;;;;;;;3.10;2.33;;;11.60;99.90;;;;;;4982531;28;20664;-94
2021/10/05 12:01:25;;;;;;;4.07;2.67;;;11.50;99.90;;;;;;4981059;28;20679;-93
2021/10/05 12:04:00;;;;;;;3.90;2.80;;;11.50;99.90;;;;;;4981162;28;20237;-94
2021/10/05 12:06:34;;;;;;;5.60;2.50;;;11.50;99.90;;;;;;4964401;28;20795;-92
2021/10/05 12:09:09;;;;;;;4.90;2.50;;;11.60;99.90;;;;;;4982379;28;20298;-92
2021/10/05 12:11:46;;;;;;;3.97;2.30;;;11.60;99.90;;;;;;4981795;28;20301;-93
2021/10/05 12:14:19;;;;;;;5.27;2.87;;;11.70;99.90;;;;;;4982450;28;20274;-94
2021/10/05 12:17:14;;;;;;;5.07;2.50;;;11.70;99.90;;;;;;4983030;28;20309;-94
2021/10/05 12:19:49;;;;;;;6.93;4.13;;;11.70;99.90;;;;;;4984629;28;20315;-95
2021/10/05 12:22:24;;;;;;;8.03;4.60;;;11.80;99.90;;;;;;4982859;28;20210;-96
2021/10/05 12:25:00;;;;;;;11.77;5.30;;;11.90;99.90;;;;;;4981480;28;20242;-96
2021/10/05 12:27:39;;;;;;;6.93;5.37;;;12.10;99.90;;;;;;4982919;28;20207;-95
2021/10/05 12:30:17;;;;;;;9.87;4.97;;;12.30;99.90;;;;;;4981455;28;20250;-95
2021/10/05 12:32:50;;;;;;;6.77;5.20;;;12.40;99.90;;;;;;4982808;28;20218;-96
2021/10/05 12:35:28;;;;;;;9.20;5.70;;;12.50;99.90;;;;;;4982626;28;20291;-95
2021/10/05 12:38:06;;;;;;;7.57;5.50;;;12.60;99.90;;;;;;4983490;28;20234;-95
2021/10/05 12:40:56;;;;;;;7.93;5.67;;;12.70;99.90;;;;;;4983653;28;20207;-95
2021/10/05 12:43:42;;;;;;;11.70;5.97;;;12.80;99.90;;;;;;4985346;28;20361;-94
2021/10/05 12:46:16;;;;;;;8.37;5.87;;;12.80;99.90;;;;;;4996307;28;20290;-95
2021/10/05 12:48:50;;;;;;;11.43;6.83;;;12.80;99.90;;;;;;4999631;28;20210;-96
2021/10/05 12:51:25;;;;;;;12.00;6.70;;;12.90;99.90;;;;;;4995006;28;20266;-93
2021/10/05 12:54:00;;;;;;;7.97;6.33;;;12.90;99.90;;;;;;4989811;28;20210;-93
2021/10/05 12:56:35;;;;;;;9.27;6.60;;;12.90;99.90;;;;;;4984876;28;20209;-94
2021/10/05 12:59:09;;;;;;;12.40;7.03;;;12.90;99.90;;;;;;4966462;28;20215;-95
2021/10/05 13:01:41;;;;;;;9.43;7.73;;;12.90;99.90;;;;;;4978561;28;20268;-94
2021/10/05 13:04:15;;;;;;;10.80;7.53;;;12.90;99.90;;;;;;4976246;28;20218;-94
2021/10/05 13:06:47;;;;;;;9.90;7.17;;;12.90;99.90;;;;;;4977912;29;20204;-94
2021/10/05 13:09:18;;;;;;;11.13;7.17;;;12.90;99.90;;;;;;4983706;28;20218;-94
2021/10/05 13:11:52;;;;;;;13.30;8.40;;;12.90;99.90;;;;;;4998784;28;20199;-94
2021/10/05 13:14:24;;;;;;;11.20;7.33;;;12.90;99.90;;;;;;4998127;28;20218;-93
2021/10/05 13:16:56;;;;;;;16.70;8.47;;;12.90;99.90;;;;;;4997468;28;20195;-94
2021/10/05 13:19:27;;;;;;;12.27;8.37;;;12.90;99.90;;;;;;4995145;28;20686;-94
2021/10/05 13:21:58;;;;;;;14.30;8.27;;;12.90;99.90;;;;;;4986223;28;20207;-95
2021/10/05 13:24:31;;;;;;;11.10;8.63;;;12.90;99.90;;;;;;4983684;28;20291;-95
2021/10/05 13:27:06;;;;;;;11.97;8.07;;;12.90;99.90;;;;;;4986540;28;20652;-95
2021/10/05 13:29:37;;;;;;;13.73;8.63;;;12.90;99.90;;;;;;4986004;28;20257;-95
2021/10/05 13:32:10;;;;;;;12.97;8.07;;;12.90;99.90;;;;;;4984053;28;20203;-95
2021/10/05 13:34:43;;;;;;;13.97;7.97;;;12.90;99.90;;;;;;4982660;28;20265;-95
2021/10/05 13:37:15;;;;;;;10.30;8.00;;;12.90;99.90;;;;;;4983286;28;20523;-94
2021/10/05 13:39:49;;;;;;;12.37;8.40;;;12.80;99.90;;;;;;4978456;28;20222;-93
2021/10/05 13:42:22;;;;;;;13.67;7.87;;;12.70;99.90;;;;;;4963375;28;20216;-92
2021/10/05 13:44:59;;;;;;;11.13;7.63;;;12.70;99.90;;;;;;4967043;28;20222;-94
2021/10/05 13:47:31;;;;;;;11.90;7.23;;;12.80;99.90;;;;;;4980540;28;20203;-95
2021/10/05 13:50:05;;;;;;;12.80;7.90;;;12.80;99.90;;;;;;4982048;28;20246;-94
2021/10/05 13:52:36;;;;;;;10.63;7.60;;;12.70;99.90;;;;;;4980667;28;20207;-93
2021/10/05 13:55:09;;;;;;;16.80;7.70;;;12.70;99.90;;;;;;4965208;28;20207;-93
2021/10/05 13:57:42;;;;;;;11.60;7.23;;;12.60;99.90;;;;;;4978777;28;20210;-93
2021/10/05 14:00:13;;;;;;;14.27;7.03;;;12.60;99.90;;;;;;4979979;28;20210;-94
2021/10/05 14:02:45;;;;;;;12.30;7.27;;;12.50;99.90;;;;;;4980769;28;20233;-93
2021/10/05 14:05:17;;;;;;;15.73;7.47;;;12.50;99.90;;;;;;5025825;23;20324;-94
2021/10/05 14:07:51;;;;;;;12.70;7.10;;;12.40;99.90;;;;;;5000943;28;20217;-94
2021/10/05 14:10:24;;;;;;;11.37;7.50;;;12.40;99.90;;;;;;4998983;28;20222;-93
2021/10/05 14:13:00;;;;;;;11.93;7.50;;;12.30;99.90;;;;;;4999692;28;20293;-95
2021/10/05 14:15:32;;;;;;;21.00;8.13;;;12.30;99.90;;;;;;4983562;28;20225;-94
2021/10/05 14:18:06;;;;;;;13.63;7.53;;;12.30;99.90;;;;;;4984249;28;20266;-95
2021/10/05 14:20:53;;;;;;;14.57;7.97;;;12.30;99.90;;;;;;4984272;28;20594;-95
2021/10/05 14:23:25;;;;;;;12.27;7.20;;;12.20;99.90;;;;;;4996343;28;20229;-95
2021/10/05 14:25:59;;;;;;;14.53;7.73;;;12.20;99.90;;;;;;4979410;28;20218;-93
2021/10/05 14:28:33;;;;;;;12.67;7.77;;;12.30;99.90;;;;;;4995423;28;20234;-94
2021/10/05 14:40:02;;;;;;;12.77;7.30;;;12.30;99.90;;;;;;4992514;28;20246;-95
2021/10/05 14:45:09;;;;;;;14.50;7.00;;;12.20;99.90;;;;;;5161332;22;20252;-96
2021/10/05 14:50:17;;;;;;;10.70;6.87;;;12.00;99.90;;;;;;5141838;22;20245;-96
2021/10/05 15:09:24;;;;;;;10.73;6.63;;;11.80;99.90;;;;;;5054999;28;20197;-96
2021/10/05 15:12:32;;;;;;;10.43;6.50;;;11.80;99.90;;;;;;5056292;28;20200;-96
2021/10/05 15:34:13;;;;;;;7.43;5.13;;;11.70;99.90;;;;;;5050477;26;20727;-96
2021/10/05 15:42:05;;;;;;;14.63;4.73;;;11.70;99.90;;;;;;5252540;22;20455;-96
2021/10/05 16:16:52;;;;;;;8.53;5.07;;;11.70;99.90;;;;;;5034409;28;20224;-93
2021/10/05 16:19:24;;;;;;;7.03;4.37;;;11.80;99.90;;;;;;5035832;28;20230;-93
2021/10/05 16:22:09;;;;;;;7.13;4.50;;;11.80;99.90;;;;;;5033579;28;20654;-92
2021/10/05 16:24:42;;;;;;;6.73;3.67;;;11.80;99.90;;;;;;5013811;28;20219;-95
2021/10/05 16:27:17;;;;;;;6.53;3.37;;;11.80;99.90;;;;;;5002435;28;20218;-94
2021/10/05 16:29:54;;;;;;;4.40;3.30;;;11.70;99.90;;;;;;4998716;28;20211;-93
2021/10/05 16:32:33;;;;;;;4.93;3.20;;;11.70;99.90;;;;;;4984313;28;20206;-94
2021/10/05 16:37:55;;;;;;;6.70;3.70;;;11.70;99.90;;;;;;4993090;28;20207;-94
2021/10/05 16:40:27;;;;;;;5.17;3.07;;;11.70;99.90;;;;;;5002207;28;20229;-94
2021/10/05 16:42:59;;;;;;;4.03;2.77;;;11.60;99.90;;;;;;5013234;28;20273;-95
2021/10/05 16:45:32;;;;;;;4.93;2.90;;;11.70;99.90;;;;;;5009871;28;20210;-94
2021/10/05 16:48:09;;;;;;;4.37;2.97;;;11.80;99.90;;;;;;5015651;28;20262;-94
2021/10/05 16:50:48;;;;;;;4.13;2.90;;;11.80;99.90;;;;;;5015897;28;20210;-93
2021/10/05 16:53:23;;;;;;;5.30;3.13;;;11.90;99.90;;;;;;5013732;28;20210;-93
2021/10/05 16:55:55;;;;;;;6.53;3.60;;;11.90;99.90;;;;;;5015065;28;20210;-92
2021/10/05 17:15:01;;;;;;;4.27;3.40;;;12.10;99.90;;;;;;4996097;28;20210;-91
2021/10/05 17:57:51;;;;;;;4.43;2.70;;;12.60;99.90;;;;;;5049260;28;20229;-92
2021/10/05 18:00:25;;;;;;;7.37;3.00;;;12.70;99.90;;;;;;5052532;28;20197;-93
2021/10/05 18:03:00;;;;;;;3.73;2.93;;;12.60;99.90;;;;;;5052938;28;20208;-92
2021/10/05 18:32:40;;;;;;;5.70;2.37;;;12.60;99.90;;;;;;5048799;28;20231;-90
2021/10/05 18:35:14;;;;;;;3.90;2.17;;;12.60;99.90;;;;;;5054997;28;20205;-90
2021/10/05 18:37:47;;;;;;;5.43;2.13;;;12.60;99.90;;;;;;5052401;28;20209;-89
2021/10/05 18:40:22;;;;;;;6.70;2.13;;;12.70;99.90;;;;;;5051833;28;20224;-91
2021/10/05 18:43:00;;;;;;;4.60;2.37;;;12.70;99.90;;;;;;5044343;23;20241;-90
2021/10/05 18:45:38;;;;;;;5.80;2.40;;;12.80;99.90;;;;;;5015090;28;20198;-89
2021/10/05 18:48:12;;;;;;;9.17;2.20;;;12.80;99.90;;;;;;4999097;28;20217;-89
2021/10/05 18:50:43;;;;;;;4.37;1.90;;;12.80;99.90;;;;;;5267258;22;20238;-89
2021/10/05 18:53:15;;;;;;;4.97;2.10;;;12.80;99.90;;;;;;5070060;23;20241;-88
2021/10/05 18:55:47;;;;;;;4.60;1.87;;;12.60;99.90;;;;;;5017117;28;20224;-90
2021/10/05 19:11:50;;;;;;;5.43;2.20;;;12.70;99.90;;;;;;5035599;28;20208;-90
2021/10/05 19:14:22;;;;;;;4.90;2.00;;;12.70;99.90;;;;;;5012815;28;20245;-89
2021/10/05 19:16:55;;;;;;;5.03;1.83;;;12.60;99.90;;;;;;5014225;28;20206;-89
2021/10/05 19:27:17;;;;;;;4.80;1.63;;;12.80;99.90;;;;;;5047804;23;20261;-89
2021/10/05 19:32:19;;;;;;;4.53;1.60;;;12.90;99.90;;;;;;5055155;28;20220;-90
2021/10/05 19:40:09;;;;;;;4.20;1.40;;;12.70;99.90;;;;;;5037668;28;20221;-90
2021/10/05 19:42:44;;;;;;;3.17;1.40;;;12.70;99.90;;;;;;5038531;28;20224;-91
2021/10/05 19:45:25;;;;;;;7.80;1.70;;;12.70;99.90;;;;;;5039780;28;20245;-90
2021/10/05 19:47:58;;;;;;;6.70;1.40;;;12.80;99.90;;;;;;5038778;28;20241;-91
2021/10/05 19:55:55;;;;;;;5.23;0.90;;;12.80;99.90;;;;;;5049810;28;20311;-89
2021/10/05 19:58:29;;;;;;;2.00;0.80;;;12.90;99.90;;;;;;5054543;28;20208;-89
2021/10/05 20:01:01;;;;;;;2.57;0.93;;;12.70;99.90;;;;;;5037382;28;20216;-88